createdAt,value
2022-08-30T00:00:54.778Z,8.15
2022-08-30T00:01:56.398Z,8.50
2022-08-30T00:02:59.254Z,8.38
2022-08-30T00:04:02.686Z,8.30
2022-08-30T00:05:04.877Z,13.93
2022-08-30T00:06:07.962Z,6.78
2022-08-30T00:07:09.645Z,7.15
2022-08-30T00:08:12.278Z,13.65
2022-08-30T00:09:15.541Z,12.02
2022-08-30T00:10:17.325Z,14.88
2022-08-30T00:11:22.816Z,10.27
2022-08-30T00:12:24.562Z,14.20
2022-08-30T00:13:26.303Z,10.35
2022-08-30T00:14:27.945Z,7.22
2022-08-30T00:15:30.130Z,8.85
2022-08-30T00:16:31.785Z,8.77
2022-08-30T00:17:33.847Z,9.55
2022-08-30T00:18:36.602Z,9.98
2022-08-30T00:19:38.309Z,10.95
2022-08-30T00:20:39.949Z,6.97
2022-08-30T00:21:41.542Z,9.85
2022-08-30T00:22:43.507Z,11.80
2022-08-30T00:23:45.569Z,7.15
2022-08-30T00:24:47.261Z,9.18
2022-08-30T00:25:49.514Z,8.00
2022-08-30T00:26:51.094Z,9.48
2022-08-30T00:27:53.310Z,22.48
2022-08-30T00:28:55.136Z,10.88
2022-08-30T00:29:57.022Z,8.73
2022-08-30T00:30:58.670Z,10.93
2022-08-30T00:32:02.376Z,7.88
2022-08-30T00:33:04.862Z,10.05
2022-08-30T00:34:07.259Z,8.10
2022-08-30T00:35:11.159Z,6.50
2022-08-30T00:36:12.743Z,8.75
2022-08-30T00:37:15.137Z,8.52
2022-08-30T00:38:17.318Z,11.23
2022-08-30T00:39:18.899Z,9.52
2022-08-30T00:40:24.838Z,10.30
2022-08-30T00:41:29.013Z,7.57
2022-08-30T00:42:30.884Z,10.10
2022-08-30T00:43:36.807Z,11.30
2022-08-30T00:44:39.377Z,8.18
2022-08-30T00:45:41.202Z,9.73
2022-08-30T00:46:43.093Z,11.50
2022-08-30T00:47:45.506Z,9.10
2022-08-30T00:48:49.525Z,7.72
2022-08-30T00:49:56.330Z,10.00
2022-08-30T00:51:05.050Z,8.50
2022-08-30T00:52:07.371Z,7.90
2022-08-30T00:53:14.389Z,10.93
2022-08-30T00:54:16.852Z,9.85
2022-08-30T00:55:20.666Z,9.30
2022-08-30T00:56:25.123Z,7.75
2022-08-30T00:57:26.743Z,13.30
2022-08-30T00:58:33.844Z,9.38
2022-08-30T00:59:35.578Z,9.07
2022-08-30T01:00:37.290Z,8.07
2022-08-30T01:01:39.248Z,8.70
2022-08-30T01:02:41.325Z,8.75
2022-08-30T01:03:43.860Z,11.75
2022-08-30T01:04:45.970Z,9.27
2022-08-30T01:05:50.129Z,7.78
2022-08-30T01:06:52.768Z,7.70
2022-08-30T01:07:54.341Z,10.32
2022-08-30T01:08:56.851Z,11.40
2022-08-30T01:09:58.447Z,14.30
2022-08-30T01:11:01.289Z,15.10
2022-08-30T01:12:05.661Z,119.57
2022-08-30T01:13:09.423Z,8.30
2022-08-30T01:14:12.526Z,16.33
2022-08-30T01:15:14.965Z,7.65
2022-08-30T01:16:16.701Z,9.68
2022-08-30T01:17:19.487Z,8.82
2022-08-30T01:18:25.260Z,7.78
2022-08-30T01:19:58.484Z,10.38
2022-08-30T01:21:16.402Z,25.60
2022-08-30T01:22:26.810Z,167.80
2022-08-30T01:23:29.494Z,288.50
2022-08-30T01:24:33.330Z,139.20
2022-08-30T01:25:36.858Z,155.75
2022-08-30T01:26:39.722Z,163.65
2022-08-30T01:27:45.653Z,111.32
2022-08-30T01:28:50.226Z,3.85
2022-08-30T01:29:52.491Z,13.32
2022-08-30T01:30:54.259Z,10.80
2022-08-30T01:31:56.243Z,17.23
2022-08-30T01:33:01.733Z,19.40
2022-08-30T01:34:05.227Z,8.27
2022-08-30T01:35:07.257Z,9.30
2022-08-30T01:36:12.354Z,10.30
2022-08-30T01:37:17.721Z,27.17
2022-08-30T01:38:22.334Z,54.35
2022-08-30T01:39:24.094Z,116.60
2022-08-30T01:40:25.775Z,10.10
2022-08-30T01:41:31.570Z,7.97
2022-08-30T01:42:33.490Z,7.05
2022-08-30T01:43:35.077Z,23.33
2022-08-30T01:44:37.437Z,30.02
2022-08-30T01:45:39.230Z,51.90
2022-08-30T01:46:45.555Z,30.02
2022-08-30T01:47:47.187Z,11.45
2022-08-30T01:48:52.979Z,13.23
2022-08-30T01:49:55.783Z,11.55
2022-08-30T01:50:57.539Z,8.18
2022-08-30T01:52:00.884Z,12.27
2022-08-30T01:53:04.422Z,9.77
2022-08-30T01:54:06.595Z,11.77
2022-08-30T01:55:08.923Z,8.10
2022-08-30T01:56:12.034Z,73.00
2022-08-30T01:57:17.430Z,8.27
2022-08-30T01:58:19.034Z,133.00
2022-08-30T01:59:20.715Z,6.43
2022-08-30T02:00:22.389Z,20.00
2022-08-30T02:01:27.986Z,10.02
2022-08-30T02:02:29.741Z,14.60
2022-08-30T02:03:35.075Z,11.77
2022-08-30T02:04:36.798Z,11.27
2022-08-30T02:05:38.511Z,14.20
2022-08-30T02:06:41.151Z,13.05
2022-08-30T02:07:42.945Z,114.15
2022-08-30T02:08:44.958Z,8.23
2022-08-30T02:09:46.946Z,8.18
2022-08-30T02:10:48.542Z,21.77
2022-08-30T02:11:50.300Z,11.98
2022-08-30T02:12:51.983Z,15.80
2022-08-30T02:13:53.780Z,8.80
2022-08-30T02:14:55.659Z,10.23
2022-08-30T02:15:57.271Z,9.07
2022-08-30T02:16:58.980Z,10.43
2022-08-30T02:18:01.277Z,7.82
2022-08-30T02:19:03.782Z,9.55
2022-08-30T02:20:06.983Z,13.90
2022-08-30T02:21:09.801Z,12.70
2022-08-30T02:22:11.885Z,7.90
2022-08-30T02:23:13.582Z,10.75
2022-08-30T02:24:15.447Z,15.73
2022-08-30T02:25:20.846Z,8.82
2022-08-30T02:26:23.151Z,12.55
2022-08-30T02:27:26.097Z,8.25
2022-08-30T02:28:27.976Z,16.48
2022-08-30T02:29:29.796Z,7.10
2022-08-30T02:30:31.798Z,9.10
2022-08-30T02:31:33.410Z,11.73
2022-08-30T02:32:34.977Z,7.82
2022-08-30T02:33:36.709Z,7.13
2022-08-30T02:34:42.041Z,8.20
2022-08-30T02:35:43.801Z,11.98
2022-08-30T02:36:46.090Z,10.38
2022-08-30T02:37:47.718Z,9.57
2022-08-30T02:38:50.981Z,8.00
2022-08-30T02:39:52.597Z,10.85
2022-08-30T02:40:54.471Z,7.85
2022-08-30T02:41:56.066Z,10.15
2022-08-30T02:42:57.702Z,8.77
2022-08-30T02:44:00.526Z,11.38
2022-08-30T02:45:02.470Z,7.47
2022-08-30T02:46:04.762Z,12.07
2022-08-30T02:47:06.469Z,8.07
2022-08-30T02:48:08.651Z,10.23
2022-08-30T02:49:32.517Z,7.97
2022-08-30T02:50:32.218Z,12.00
2022-08-30T02:51:34.076Z,7.88
2022-08-30T02:52:37.044Z,12.30
2022-08-30T02:53:40.620Z,11.52
2022-08-30T02:54:42.227Z,8.00
2022-08-30T02:55:44.350Z,7.22
2022-08-30T02:56:47.889Z,7.28
2022-08-30T02:57:49.549Z,9.68
2022-08-30T02:58:51.125Z,7.70
2022-08-30T02:59:53.453Z,10.00
2022-08-30T03:00:55.324Z,12.20
2022-08-30T03:01:56.998Z,7.60
2022-08-30T03:02:58.897Z,11.52
2022-08-30T03:04:00.710Z,7.20
2022-08-30T03:05:03.170Z,8.95
2022-08-30T03:06:05.108Z,10.32
2022-08-30T03:07:08.217Z,11.55
2022-08-30T03:08:09.887Z,8.45
2022-08-30T03:09:11.558Z,7.85
2022-08-30T03:10:15.207Z,7.00
2022-08-30T03:11:16.758Z,8.63
2022-08-30T03:12:18.586Z,9.90
2022-08-30T03:13:20.919Z,8.50
2022-08-30T03:14:22.772Z,12.73
2022-08-30T03:15:25.430Z,6.65
2022-08-30T03:16:27.081Z,7.70
2022-08-30T03:17:29.799Z,8.27
2022-08-30T03:18:31.377Z,13.55
2022-08-30T03:19:34.185Z,14.90
2022-08-30T03:20:35.785Z,17.77
2022-08-30T03:21:37.459Z,8.00
2022-08-30T03:22:39.706Z,8.82
2022-08-30T03:23:42.434Z,11.30
2022-08-30T03:24:45.771Z,11.80
2022-08-30T03:25:47.350Z,9.95
2022-08-30T03:26:48.928Z,9.82
2022-08-30T03:27:50.873Z,9.88
2022-08-30T03:28:53.182Z,7.78
2022-08-30T03:29:55.747Z,9.93
2022-08-30T03:30:57.351Z,12.48
2022-08-30T03:31:59.062Z,6.90
2022-08-30T03:33:01.631Z,16.15
2022-08-30T03:34:05.322Z,11.30
2022-08-30T03:35:07.946Z,7.60
2022-08-30T03:36:11.995Z,11.55
2022-08-30T03:37:13.776Z,8.02
2022-08-30T03:38:15.804Z,9.02
2022-08-30T03:39:17.372Z,6.75
2022-08-30T03:40:20.593Z,8.80
2022-08-30T03:41:22.194Z,9.15
2022-08-30T03:42:24.816Z,7.90
2022-08-30T03:43:26.556Z,9.27
2022-08-30T03:44:28.193Z,6.68
2022-08-30T03:45:29.901Z,9.43
2022-08-30T03:46:34.491Z,7.55
2022-08-30T03:47:38.448Z,9.02
2022-08-30T03:48:43.977Z,8.10
2022-08-30T03:49:46.146Z,12.27
2022-08-30T03:50:47.790Z,10.93
2022-08-30T03:51:49.536Z,8.45
2022-08-30T03:52:51.209Z,10.45
2022-08-30T03:53:52.962Z,9.88
2022-08-30T03:54:54.562Z,14.15
2022-08-30T03:55:57.247Z,8.20
2022-08-30T03:56:59.080Z,8.38
2022-08-30T03:58:00.709Z,8.63
2022-08-30T03:59:02.519Z,9.98
2022-08-30T04:00:05.581Z,8.35
2022-08-30T04:01:07.891Z,9.80
2022-08-30T04:02:09.599Z,10.95
2022-08-30T04:03:11.210Z,13.77
2022-08-30T04:04:16.299Z,7.15
2022-08-30T04:05:20.869Z,9.52
2022-08-30T04:06:23.057Z,8.32
2022-08-30T04:07:24.648Z,8.18
2022-08-30T04:08:26.620Z,7.43
2022-08-30T04:09:28.291Z,10.77
2022-08-30T04:10:29.869Z,8.95
2022-08-30T04:11:32.034Z,8.48
2022-08-30T04:12:33.650Z,15.43
2022-08-30T04:13:35.242Z,8.02
2022-08-30T04:14:36.827Z,12.27
2022-08-30T04:15:38.436Z,9.23
2022-08-30T04:16:40.275Z,7.82
2022-08-30T04:17:42.205Z,8.32
2022-08-30T04:18:43.773Z,14.73
2022-08-30T04:19:45.418Z,8.85
2022-08-30T04:20:47.446Z,7.60
2022-08-30T04:21:49.023Z,11.77
2022-08-30T04:22:50.619Z,9.48
2022-08-30T04:23:52.322Z,10.60
2022-08-30T04:24:54.057Z,8.95
2022-08-30T04:25:56.375Z,10.30
2022-08-30T04:26:57.949Z,20.15
2022-08-30T04:27:59.597Z,9.93
2022-08-30T04:29:01.198Z,8.07
2022-08-30T04:30:03.285Z,8.10
2022-08-30T04:31:12.050Z,8.85
2022-08-30T04:32:14.235Z,9.32
2022-08-30T04:33:16.668Z,11.27
2022-08-30T04:34:18.357Z,8.30
2022-08-30T04:35:20.061Z,13.55
2022-08-30T04:36:22.164Z,9.63
2022-08-30T04:37:23.797Z,9.48
2022-08-30T04:38:29.891Z,9.20
2022-08-30T04:39:32.022Z,7.30
2022-08-30T04:40:33.669Z,12.20
2022-08-30T04:41:40.645Z,10.32
2022-08-30T04:42:44.026Z,8.55
2022-08-30T04:43:48.287Z,17.58
2022-08-30T04:44:50.882Z,9.55
2022-08-30T04:45:53.863Z,11.75
2022-08-30T04:46:55.450Z,8.32
2022-08-30T04:47:57.302Z,9.32
2022-08-30T04:48:58.930Z,9.80
2022-08-30T04:50:00.621Z,13.48
2022-08-30T04:51:11.472Z,8.27
2022-08-30T04:52:13.092Z,14.13
2022-08-30T04:53:15.849Z,8.10
2022-08-30T04:54:17.762Z,14.88
2022-08-30T04:55:20.505Z,8.43
2022-08-30T04:56:24.253Z,8.25
2022-08-30T04:57:27.165Z,12.18
2022-08-30T04:58:28.727Z,11.55
2022-08-30T04:59:30.344Z,14.75
2022-08-30T05:00:32.560Z,10.88
2022-08-30T05:01:44.926Z,10.05
2022-08-30T05:02:47.762Z,10.80
2022-08-30T05:03:50.382Z,9.52
2022-08-30T05:05:24.107Z,9.75
2022-08-30T05:06:28.112Z,9.20
2022-08-30T05:07:31.278Z,13.05
2022-08-30T05:08:32.892Z,13.25
2022-08-30T05:09:34.496Z,8.68
2022-08-30T05:10:45.270Z,7.30
2022-08-30T05:11:47.066Z,11.52
2022-08-30T05:12:48.657Z,9.88
2022-08-30T05:13:50.529Z,10.45
2022-08-30T05:14:52.312Z,8.07
2022-08-30T05:15:53.889Z,9.25
2022-08-30T05:16:56.129Z,10.77
2022-08-30T05:17:57.998Z,11.10
2022-08-30T05:19:00.144Z,10.93
2022-08-30T05:20:02.475Z,10.75
2022-08-30T05:21:13.214Z,14.50
2022-08-30T05:22:14.886Z,11.73
2022-08-30T05:23:16.885Z,10.60
2022-08-30T05:24:18.851Z,14.65
2022-08-30T05:25:26.349Z,12.32
2022-08-30T05:26:31.585Z,11.82
2022-08-30T05:27:33.430Z,12.18
2022-08-30T05:28:38.890Z,13.27
2022-08-30T05:29:40.455Z,12.95
2022-08-30T05:30:42.275Z,11.73
2022-08-30T05:31:44.813Z,26.65
2022-08-30T05:32:46.606Z,19.73
2022-08-30T05:33:49.839Z,16.13
2022-08-30T05:34:51.743Z,13.00
2022-08-30T05:35:54.517Z,15.82
2022-08-30T05:36:56.405Z,15.73
2022-08-30T05:37:58.063Z,21.25
2022-08-30T05:39:00.577Z,9.50
2022-08-30T05:40:05.555Z,8.80
2022-08-30T05:41:12.981Z,12.30
2022-08-30T05:42:16.870Z,12.55
2022-08-30T05:43:18.578Z,8.75
2022-08-30T05:44:22.971Z,16.10
2022-08-30T05:45:27.286Z,16.38
2022-08-30T05:47:39.717Z,10.07
2022-08-30T05:48:41.340Z,9.10
2022-08-30T05:49:43.091Z,11.35
2022-08-30T05:50:44.651Z,12.90
2022-08-30T05:51:46.256Z,13.27
2022-08-30T05:52:47.827Z,14.75
2022-08-30T05:53:51.793Z,8.60
2022-08-30T05:54:55.824Z,9.13
2022-08-30T05:55:57.784Z,7.97
2022-08-30T05:56:59.829Z,11.98
2022-08-30T05:58:01.389Z,11.50
2022-08-30T05:59:06.825Z,10.18
2022-08-30T06:00:13.551Z,7.82
2022-08-30T06:01:42.714Z,8.48
2022-08-30T06:02:44.716Z,10.40
2022-08-30T06:03:46.567Z,10.93
2022-08-30T06:04:48.188Z,11.80
2022-08-30T06:05:49.854Z,9.38
2022-08-30T06:06:51.807Z,10.07
2022-08-30T06:07:53.372Z,14.15
2022-08-30T06:08:55.579Z,10.18
2022-08-30T06:09:57.191Z,8.63
2022-08-30T06:10:58.910Z,10.38
2022-08-30T06:12:00.486Z,14.48
2022-08-30T06:13:02.105Z,11.77
2022-08-30T06:14:04.791Z,17.00
2022-08-30T06:15:07.196Z,12.90
2022-08-30T06:16:11.951Z,16.50
2022-08-30T06:17:13.630Z,20.30
2022-08-30T06:18:15.469Z,20.58
2022-08-30T06:19:18.204Z,15.70
2022-08-30T06:20:20.325Z,14.85
2022-08-30T06:21:25.917Z,19.98
2022-08-30T06:22:27.495Z,19.70
2022-08-30T06:23:29.562Z,24.05
2022-08-30T06:24:55.947Z,18.80
2022-08-30T06:25:52.857Z,21.63
2022-08-30T06:26:54.475Z,21.08
2022-08-30T06:27:56.679Z,21.70
2022-08-30T06:28:58.980Z,17.92
2022-08-30T06:30:00.559Z,21.95
2022-08-30T06:31:05.421Z,19.38
2022-08-30T06:32:07.087Z,19.57
2022-08-30T06:33:09.773Z,19.02
2022-08-30T06:34:11.494Z,18.88
2022-08-30T06:35:13.076Z,20.63
2022-08-30T06:36:24.168Z,19.35
2022-08-30T06:37:30.038Z,16.65
2022-08-30T06:38:31.862Z,23.08
2022-08-30T06:39:33.449Z,20.20
2022-08-30T06:40:36.621Z,36.13
2022-08-30T06:41:40.251Z,16.95
2022-08-30T06:42:42.018Z,21.85
2022-08-30T06:43:48.671Z,19.23
2022-08-30T06:44:50.924Z,24.60
2022-08-30T06:45:53.130Z,14.52
2022-08-30T06:46:54.877Z,17.60
2022-08-30T06:49:07.433Z,19.80
2022-08-30T06:50:12.082Z,18.83
2022-08-30T06:51:14.745Z,21.13
2022-08-30T06:52:17.034Z,18.90
2022-08-30T06:53:20.934Z,16.58
2022-08-30T06:54:22.879Z,17.13
2022-08-30T06:55:24.566Z,17.63
2022-08-30T06:56:27.645Z,17.45
2022-08-30T06:57:29.370Z,19.40
2022-08-30T06:58:32.316Z,20.50
2022-08-30T06:59:33.982Z,17.45
2022-08-30T07:00:35.576Z,14.65
2022-08-30T07:01:38.386Z,18.23
2022-08-30T07:02:41.092Z,16.40
2022-08-30T07:03:43.057Z,15.57
2022-08-30T07:04:44.784Z,16.73
2022-08-30T07:05:48.523Z,15.88
2022-08-30T07:06:50.243Z,13.97
2022-08-30T07:07:54.620Z,13.52
2022-08-30T07:08:56.691Z,9.82
2022-08-30T07:09:58.302Z,11.15
2022-08-30T07:10:59.933Z,10.77
2022-08-30T07:12:03.603Z,10.33
2022-08-30T07:13:05.272Z,10.85
2022-08-30T07:14:07.683Z,13.25
2022-08-30T07:15:09.775Z,12.32
2022-08-30T07:16:13.437Z,10.70
2022-08-30T07:17:34.839Z,13.20
2022-08-30T07:18:51.820Z,11.17
2022-08-30T07:19:54.198Z,14.53
2022-08-30T07:20:56.385Z,14.40
2022-08-30T07:21:57.947Z,11.80
2022-08-30T07:22:59.581Z,13.60
2022-08-30T07:24:01.831Z,12.90
2022-08-30T07:25:03.807Z,13.13
2022-08-30T07:26:10.391Z,16.07
2022-08-30T07:27:12.077Z,14.30
2022-08-30T07:28:13.837Z,12.40
2022-08-30T07:29:17.701Z,16.10
2022-08-30T07:30:19.371Z,19.03
2022-08-30T07:31:21.626Z,15.33
2022-08-30T07:32:23.202Z,16.10
2022-08-30T07:33:24.810Z,17.47
2022-08-30T07:34:27.532Z,15.37
2022-08-30T07:35:29.328Z,15.83
2022-08-30T07:36:31.089Z,16.00
2022-08-30T07:37:32.746Z,13.50
2022-08-30T07:38:34.591Z,13.43
2022-08-30T07:39:41.750Z,14.73
2022-08-30T07:40:47.692Z,11.47
2022-08-30T07:41:50.715Z,17.63
2022-08-30T07:42:52.515Z,14.97
2022-08-30T07:43:54.500Z,13.50
2022-08-30T07:44:56.928Z,13.47
2022-08-30T07:46:04.514Z,15.40
2022-08-30T07:47:06.173Z,16.60
2022-08-30T07:48:08.293Z,12.90
2022-08-30T07:49:11.782Z,10.80
2022-08-30T07:50:13.826Z,11.77
2022-08-30T07:51:20.145Z,12.40
2022-08-30T07:52:21.703Z,14.47
2022-08-30T07:53:23.581Z,14.77
2022-08-30T07:54:25.183Z,12.30
2022-08-30T07:55:26.801Z,10.70
2022-08-30T07:56:28.494Z,10.73
2022-08-30T07:57:35.650Z,14.73
2022-08-30T07:58:37.964Z,8.97
2022-08-30T07:59:39.526Z,10.03
2022-08-30T08:00:41.155Z,9.10
2022-08-30T08:01:44.119Z,9.97
2022-08-30T08:02:45.901Z,12.40
2022-08-30T08:03:48.050Z,9.63
2022-08-30T08:04:49.635Z,10.07
2022-08-30T08:05:53.059Z,10.17
2022-08-30T08:06:55.186Z,11.70
2022-08-30T08:07:56.989Z,9.50
2022-08-30T08:09:02.172Z,9.20
2022-08-30T08:10:05.047Z,11.23
2022-08-30T08:11:19.195Z,8.40
2022-08-30T08:12:20.807Z,9.43
2022-08-30T08:13:23.657Z,9.50
2022-08-30T08:14:29.734Z,15.37
2022-08-30T08:15:31.631Z,11.63
2022-08-30T08:16:35.041Z,8.87
2022-08-30T08:17:36.629Z,12.43
2022-08-30T08:18:38.320Z,10.07
2022-08-30T08:19:39.917Z,11.27
2022-08-30T08:20:41.804Z,9.73
2022-08-30T08:21:43.373Z,9.77
2022-08-30T08:22:45.013Z,10.80
2022-08-30T08:23:46.920Z,9.40
2022-08-30T08:24:49.526Z,9.07
2022-08-30T08:25:51.219Z,10.20
2022-08-30T08:26:53.042Z,13.73
2022-08-30T08:27:54.694Z,14.30
2022-08-30T08:28:56.799Z,9.10
2022-08-30T08:29:58.408Z,10.97
2022-08-30T08:31:00.108Z,10.43
2022-08-30T08:32:01.852Z,8.67
2022-08-30T08:33:05.221Z,11.83
2022-08-30T08:34:06.938Z,10.80
2022-08-30T08:35:08.664Z,10.47
2022-08-30T08:36:10.293Z,10.93
2022-08-30T08:37:12.011Z,11.73
2022-08-30T08:38:13.782Z,15.10
2022-08-30T08:39:15.844Z,17.10
2022-08-30T08:40:19.358Z,18.13
2022-08-30T08:41:48.948Z,9.80
2022-08-30T08:43:00.561Z,8.90
2022-08-30T08:44:13.233Z,11.77
2022-08-30T08:45:28.765Z,8.90
2022-08-30T08:46:41.402Z,7.83
2022-08-30T08:48:09.520Z,11.63
2022-08-30T08:49:13.425Z,10.80
2022-08-30T08:50:20.435Z,19.57
2022-08-30T08:51:44.862Z,10.80
2022-08-30T08:53:45.394Z,9.63
2022-08-30T08:54:59.244Z,10.20
2022-08-30T08:56:05.073Z,7.97
2022-08-30T08:57:06.645Z,11.97
2022-08-30T08:58:16.912Z,8.70
2022-08-30T08:59:18.743Z,10.30
2022-08-30T09:00:21.769Z,8.23
2022-08-30T09:01:28.250Z,11.83
2022-08-30T09:02:39.397Z,12.40
2022-08-30T09:03:41.855Z,8.17
2022-08-30T09:04:43.836Z,8.63
2022-08-30T09:05:46.084Z,12.87
2022-08-30T09:07:00.818Z,11.20
2022-08-30T09:08:09.891Z,9.70
2022-08-30T09:09:12.398Z,9.03
2022-08-30T09:10:14.309Z,9.20
2022-08-30T09:11:26.409Z,8.60
2022-08-30T09:12:28.952Z,9.30
2022-08-30T09:13:30.812Z,9.17
2022-08-30T09:14:44.324Z,7.50
2022-08-30T09:15:53.696Z,7.53
2022-08-30T09:17:07.523Z,7.20
2022-08-30T09:18:19.374Z,7.10
2022-08-30T09:19:38.279Z,9.47
2022-08-30T09:20:45.708Z,6.57
2022-08-30T09:22:00.116Z,7.17
2022-08-30T09:23:27.292Z,7.40
2022-08-30T09:24:38.125Z,8.17
2022-08-30T09:26:00.081Z,7.50
2022-08-30T09:27:46.670Z,7.37
2022-08-30T09:28:50.334Z,7.57
2022-08-30T09:29:53.337Z,6.93
2022-08-30T09:31:18.186Z,6.60
2022-08-30T09:32:31.611Z,10.60
2022-08-30T09:33:34.558Z,6.10
2022-08-30T09:34:36.208Z,6.67
2022-08-30T09:35:37.767Z,8.43
2022-08-30T09:36:49.758Z,6.67
2022-08-30T09:38:17.900Z,12.53
2022-08-30T09:39:30.952Z,6.83
2022-08-30T09:40:54.210Z,7.30
2022-08-30T09:42:16.116Z,5.70
2022-08-30T09:43:17.638Z,7.20
2022-08-30T09:44:31.490Z,9.00
2022-08-30T09:45:38.708Z,6.33
2022-08-30T09:46:53.088Z,12.00
2022-08-30T09:47:54.642Z,6.93
2022-08-30T09:48:56.401Z,7.13
2022-08-30T09:50:21.021Z,6.70
2022-08-30T09:51:53.415Z,6.23
2022-08-30T09:53:13.166Z,6.03
2022-08-30T09:54:36.635Z,7.57
2022-08-30T09:55:56.680Z,24.77
2022-08-30T09:57:13.623Z,5.93
2022-08-30T09:58:33.901Z,6.07
2022-08-30T09:59:39.983Z,6.70
2022-08-30T10:01:12.407Z,7.33
2022-08-30T10:02:41.772Z,4.90
2022-08-30T10:04:07.206Z,5.20
2022-08-30T10:05:16.728Z,9.03
2022-08-30T10:06:42.143Z,5.07
2022-08-30T10:08:02.281Z,9.20
2022-08-30T10:09:27.046Z,6.80
2022-08-30T10:10:45.266Z,6.20
2022-08-30T10:12:18.057Z,8.23
2022-08-30T10:13:38.457Z,5.00
2022-08-30T10:14:58.995Z,3.80
2022-08-30T10:16:16.482Z,3.50
2022-08-30T10:17:39.077Z,6.57
2022-08-30T10:19:04.163Z,5.27
2022-08-30T10:21:21.406Z,5.00
2022-08-30T10:22:34.463Z,5.30
2022-08-30T10:23:41.179Z,5.87
2022-08-30T10:24:50.836Z,5.63
2022-08-30T10:25:59.998Z,4.20
2022-08-30T10:27:09.579Z,4.83
2022-08-30T10:28:40.800Z,4.53
2022-08-30T10:30:14.119Z,4.07
2022-08-30T10:31:24.801Z,3.17
2022-08-30T10:32:53.221Z,4.47
2022-08-30T10:34:02.455Z,15.53
2022-08-30T10:35:19.599Z,7.63
2022-08-30T10:36:33.836Z,5.03
2022-08-30T10:37:43.946Z,7.20
2022-08-30T10:38:53.778Z,6.10
2022-08-30T10:40:28.652Z,5.03
2022-08-30T10:41:42.444Z,5.53
2022-08-30T10:42:44.585Z,5.63
2022-08-30T10:44:20.358Z,8.87
2022-08-30T10:45:23.924Z,4.63
2022-08-30T10:46:51.454Z,5.33
2022-08-30T10:48:00.595Z,3.93
2022-08-30T10:49:05.737Z,3.80
2022-08-30T10:50:45.152Z,4.43
2022-08-30T10:51:53.357Z,4.93
2022-08-30T10:52:59.621Z,4.27
2022-08-30T10:54:32.383Z,3.97
2022-08-30T10:55:37.815Z,6.43
2022-08-30T10:56:55.189Z,4.80
2022-08-30T10:58:25.565Z,4.33
2022-08-30T10:59:59.858Z,3.77
2022-08-30T11:01:20.796Z,5.17
2022-08-30T11:03:08.286Z,4.10
2022-08-30T11:04:40.337Z,3.73
2022-08-30T11:06:10.653Z,11.03
2022-08-30T11:07:15.171Z,4.93
2022-08-30T11:08:37.817Z,6.03
2022-08-30T11:10:04.650Z,3.67
2022-08-30T11:11:24.614Z,5.40
2022-08-30T11:12:53.393Z,3.77
2022-08-30T11:13:57.523Z,3.50
2022-08-30T11:15:18.186Z,3.10
2022-08-30T11:16:48.358Z,3.50
2022-08-30T11:18:08.598Z,3.20
2022-08-30T11:19:36.034Z,2.80
2022-08-30T11:20:47.819Z,8.40
2022-08-30T11:21:51.715Z,5.47
2022-08-30T11:23:18.810Z,3.00
2022-08-30T11:24:24.920Z,2.60
2022-08-30T11:26:01.983Z,3.33
2022-08-30T11:27:05.421Z,3.57
2022-08-30T11:28:09.199Z,4.70
2022-08-30T11:29:32.734Z,3.60
2022-08-30T11:30:37.746Z,4.17
2022-08-30T11:31:41.862Z,3.43
2022-08-30T11:33:25.481Z,2.30
2022-08-30T11:34:48.435Z,4.70
2022-08-30T11:35:53.688Z,4.30
2022-08-30T11:36:55.517Z,2.23
2022-08-30T11:37:58.393Z,2.80
2022-08-30T11:39:06.887Z,2.67
2022-08-30T11:40:20.842Z,7.60
2022-08-30T11:41:47.920Z,2.40
2022-08-30T11:42:55.340Z,6.40
2022-08-30T11:44:21.770Z,3.97
2022-08-30T11:45:25.453Z,2.50
2022-08-30T11:46:31.902Z,7.53
2022-08-30T11:47:47.726Z,3.00
2022-08-30T11:49:16.797Z,2.93
2022-08-30T11:50:27.757Z,2.70
2022-08-30T11:52:23.579Z,2.60
2022-08-30T11:53:51.222Z,4.40
2022-08-30T11:55:14.163Z,5.03
2022-08-30T11:56:51.956Z,4.20
2022-08-30T11:58:11.632Z,11.97
2022-08-30T11:59:31.398Z,6.93
2022-08-30T12:00:40.849Z,2.60
2022-08-30T12:01:50.623Z,3.63
2022-08-30T12:03:05.170Z,3.50
2022-08-30T12:04:42.877Z,3.60
2022-08-30T12:05:48.068Z,3.60
2022-08-30T12:07:11.547Z,2.40
2022-08-30T12:08:28.577Z,8.60
2022-08-30T12:09:30.291Z,2.23
2022-08-30T12:10:41.976Z,2.87
2022-08-30T12:12:09.215Z,5.30
2022-08-30T12:13:37.191Z,4.63
2022-08-30T12:14:54.787Z,4.77
2022-08-30T12:16:00.402Z,6.73
2022-08-30T12:17:28.649Z,4.37
2022-08-30T12:18:38.291Z,2.67
2022-08-30T12:19:49.037Z,4.00
2022-08-30T12:20:54.247Z,14.43
2022-08-30T12:22:01.551Z,4.17
2022-08-30T12:23:17.781Z,5.50
2022-08-30T12:24:29.626Z,4.00
2022-08-30T12:25:33.641Z,7.33
2022-08-30T12:26:41.274Z,2.40
2022-08-30T12:27:42.976Z,2.50
2022-08-30T12:28:48.628Z,3.90
2022-08-30T12:29:56.408Z,3.23
2022-08-30T12:31:14.416Z,4.37
2022-08-30T12:32:19.229Z,2.70
2022-08-30T12:33:36.552Z,2.80
2022-08-30T12:34:42.286Z,2.70
2022-08-30T12:35:44.623Z,2.67
2022-08-30T12:36:52.648Z,3.20
2022-08-30T12:38:05.266Z,2.77
2022-08-30T12:39:14.328Z,3.23
2022-08-30T12:40:22.791Z,2.23
2022-08-30T12:41:24.665Z,3.47
2022-08-30T12:42:31.261Z,2.93
2022-08-30T12:43:40.562Z,6.00
2022-08-30T12:44:43.550Z,3.70
2022-08-30T12:45:50.986Z,5.30
2022-08-30T12:47:00.270Z,2.90
2022-08-30T12:48:06.079Z,5.40
2022-08-30T12:49:08.765Z,6.13
2022-08-30T12:50:19.112Z,2.43
2022-08-30T12:51:46.922Z,3.90
2022-08-30T12:52:59.486Z,2.70
2022-08-30T12:54:15.722Z,4.30
2022-08-30T12:55:22.593Z,2.67
2022-08-30T12:56:52.418Z,4.10
2022-08-30T12:58:04.400Z,4.10
2022-08-30T12:59:06.230Z,15.80
2022-08-30T13:00:34.171Z,10.50
2022-08-30T13:01:38.195Z,2.27
2022-08-30T13:02:59.195Z,5.90
2022-08-30T13:04:30.233Z,2.13
2022-08-30T13:05:50.052Z,8.43
2022-08-30T13:06:58.703Z,3.43
2022-08-30T13:08:28.623Z,3.63
2022-08-30T13:09:37.835Z,6.20
2022-08-30T13:11:07.986Z,3.40
2022-08-30T13:14:42.325Z,10.20
2022-08-30T13:15:50.394Z,4.33
2022-08-30T13:17:06.768Z,2.47
2022-08-30T13:21:27.883Z,2.10
2022-08-30T13:22:36.703Z,2.33
2022-08-30T13:23:47.773Z,2.20
2022-08-30T13:24:52.081Z,6.40
2022-08-30T13:25:54.132Z,3.50
2022-08-30T13:29:54.779Z,4.53
2022-08-30T13:30:58.391Z,4.43
2022-08-30T13:32:10.349Z,6.10
2022-08-30T13:33:12.664Z,2.00
2022-08-30T13:34:14.774Z,5.83
2022-08-30T13:35:17.136Z,2.20
2022-08-30T13:36:34.464Z,2.80
2022-08-30T13:37:49.622Z,2.30
2022-08-30T13:38:53.411Z,2.90
2022-08-30T13:39:55.571Z,3.93
2022-08-30T13:40:57.773Z,3.63
2022-08-30T13:43:22.415Z,2.13
2022-08-30T13:44:24.858Z,3.47
2022-08-30T13:46:35.409Z,3.17
2022-08-30T13:49:46.352Z,8.93
2022-08-30T13:50:48.578Z,6.73
2022-08-30T13:52:19.322Z,4.83
2022-08-30T13:54:58.944Z,2.00
2022-08-30T13:56:05.012Z,3.20
2022-08-30T13:57:07.468Z,6.40
2022-08-30T13:58:13.580Z,2.07
2022-08-30T14:01:06.902Z,5.27
2022-08-30T14:06:34.927Z,3.20
2022-08-30T14:07:40.214Z,7.23
2022-08-30T14:08:49.823Z,2.00
2022-08-30T14:10:30.520Z,3.83
2022-08-30T14:11:22.518Z,2.70
2022-08-30T14:15:15.067Z,2.60
2022-08-30T14:16:43.728Z,4.97
2022-08-30T14:17:45.909Z,3.13
2022-08-30T14:18:48.271Z,4.13
2022-08-30T14:19:54.101Z,5.37
2022-08-30T14:20:56.883Z,2.00
2022-08-30T14:21:58.939Z,2.10
2022-08-30T14:23:10.411Z,1.77
2022-08-30T14:24:15.746Z,2.13
2022-08-30T14:25:25.064Z,1.90
2022-08-30T14:26:40.132Z,7.30
2022-08-30T14:27:48.124Z,7.30
2022-08-30T14:29:17.317Z,1.77
2022-08-30T14:30:26.130Z,2.00
2022-08-30T14:33:29.646Z,8.13
2022-08-30T14:33:39.268Z,5.43
2022-08-30T14:34:46.025Z,9.80
2022-08-30T14:35:49.593Z,1.97
2022-08-30T14:36:57.296Z,2.53
2022-08-30T14:38:04.478Z,3.93
2022-08-30T14:39:11.424Z,1.70
2022-08-30T14:40:13.812Z,7.60
2022-08-30T14:41:18.527Z,6.83
2022-08-30T14:42:38.293Z,3.73
2022-08-30T14:43:43.443Z,4.43
2022-08-30T14:44:56.298Z,5.47
2022-08-30T14:46:09.314Z,4.90
2022-08-30T14:47:12.288Z,5.00
2022-08-30T14:48:18.965Z,3.13
2022-08-30T14:49:35.480Z,2.00
2022-08-30T14:50:53.308Z,1.97
2022-08-30T14:51:56.282Z,2.67
2022-08-30T14:52:58.502Z,4.67
2022-08-30T14:54:00.914Z,1.50
2022-08-30T14:55:09.829Z,1.60
2022-08-30T14:56:22.833Z,1.83
2022-08-30T14:57:25.299Z,2.30
2022-08-30T14:58:30.735Z,2.33
2022-08-30T14:59:34.009Z,8.10
2022-08-30T15:00:38.471Z,3.40
2022-08-30T15:01:49.384Z,1.93
2022-08-30T15:04:18.032Z,1.50
2022-08-30T15:05:23.811Z,2.30
2022-08-30T15:06:29.142Z,3.13
2022-08-30T15:07:32.026Z,4.67
2022-08-30T15:08:35.412Z,1.80